CheckWX is a tool to help pilots better visualize weather data.  It is not intended as a substitute for an official pre-flight weather briefing.

05:55:29 UTC

KLRJ METAR
Le Mars Municipal Airport
Le Mars, Iowa, USA
Current

20 mins ago

KLRJ 200535Z AUTO 12012KT 3/4SM -SN OVC002 M08/M08 A3002 RMK AO2
Observed
Feb-20 @ 05:35 UTC
Wind
  • 120° at 12 KTS
Visibility
1,207 meters
Flight Rules
LIFR
Conditions
Light Snow
Cloud Levels
  • Overcast at 200' AGL
Temperature
-8°C / 18°F
Dewpoint
-8°C / 18°F
Humidity
100%
Altimeter
30.02" Hg
Pressure
1016.62 hPa
Previous

40 mins ago

KLRJ 200515Z AUTO 13007KT 1SM -SN OVC003 M08/M09 A3004 RMK AO2
Observed
Feb-20 @ 05:15 UTC
Wind
  • 130° at 7 KTS
Visibility
1,609 meters
Flight Rules
LIFR
Conditions
Light Snow
Cloud Levels
  • Overcast at 300' AGL
Temperature
-8°C / 18°F
Dewpoint
-9°C / 16°F
Humidity
93%
Altimeter
30.04" Hg
Pressure
1017.32 hPa
Previous

60 mins ago

KLRJ 200455Z AUTO 11008KT 1 1/4SM -SN OVC003 M08/M09 A3006 RMK AO2
Observed
Feb-20 @ 04:55 UTC
Wind
  • 110° at 8 KTS
Visibility
2,012 meters
Flight Rules
LIFR
Conditions
Light Snow
Cloud Levels
  • Overcast at 300' AGL
Temperature
-8°C / 18°F
Dewpoint
-9°C / 16°F
Humidity
93%
Altimeter
30.06" Hg
Pressure
1017.92 hPa